sensor_id;sensor_type;location;lat;lon;timestamp;P1;durP1;ratioP1;P2;durP2;ratioP2
20334;SDS011;10325;51.468;5.804;2022-08-01T00:00:55;1.10;;;1.10;;
20334;SDS011;10325;51.468;5.804;2022-08-01T00:03:25;1.13;;;1.13;;
20334;SDS011;10325;51.468;5.804;2022-08-01T00:05:54;1.00;;;1.00;;
20334;SDS011;10325;51.468;5.804;2022-08-01T00:08:25;1.30;;;1.20;;
20334;SDS011;10325;51.468;5.804;2022-08-01T00:10:55;1.13;;;1.07;;
20334;SDS011;10325;51.468;5.804;2022-08-01T00:13:29;1.30;;;1.20;;
20334;SDS011;10325;51.468;5.804;2022-08-01T00:16:00;0.87;;;0.87;;
20334;SDS011;10325;51.468;5.804;2022-08-01T00:18:32;1.20;;;1.10;;
20334;SDS011;10325;51.468;5.804;2022-08-01T00:21:09;0.90;;;0.90;;
20334;SDS011;10325;51.468;5.804;2022-08-01T00:23:42;1.20;;;1.10;;
20334;SDS011;10325;51.468;5.804;2022-08-01T00:26:14;0.93;;;0.93;;
20334;SDS011;10325;51.468;5.804;2022-08-01T00:28:50;1.10;;;1.00;;
20334;SDS011;10325;51.468;5.804;2022-08-01T00:31:20;0.93;;;0.93;;
20334;SDS011;10325;51.468;5.804;2022-08-01T00:33:52;1.00;;;1.00;;
20334;SDS011;10325;51.468;5.804;2022-08-01T00:36:24;1.00;;;1.00;;
20334;SDS011;10325;51.468;5.804;2022-08-01T00:38:52;1.40;;;1.30;;
20334;SDS011;10325;51.468;5.804;2022-08-01T00:41:24;0.87;;;0.87;;
20334;SDS011;10325;51.468;5.804;2022-08-01T00:43:52;1.00;;;0.90;;
20334;SDS011;10325;51.468;5.804;2022-08-01T00:46:23;0.70;;;0.70;;
20334;SDS011;10325;51.468;5.804;2022-08-01T00:48:56;1.17;;;1.10;;
20334;SDS011;10325;51.468;5.804;2022-08-01T00:51:36;0.90;;;0.90;;
20334;SDS011;10325;51.468;5.804;2022-08-01T00:54:09;1.30;;;1.20;;
20334;SDS011;10325;51.468;5.804;2022-08-01T00:56:43;1.10;;;1.07;;
20334;SDS011;10325;51.468;5.804;2022-08-01T00:59:18;1.40;;;1.30;;
20334;SDS011;10325;51.468;5.804;2022-08-01T01:01:52;0.93;;;0.93;;
20334;SDS011;10325;51.468;5.804;2022-08-01T01:04:25;1.20;;;1.10;;
20334;SDS011;10325;51.468;5.804;2022-08-01T01:10:09;1.57;;;1.10;;
20334;SDS011;10325;51.468;5.804;2022-08-01T01:13:04;1.00;;;1.00;;
20334;SDS011;10325;51.468;5.804;2022-08-01T01:18:29;1.10;;;1.10;;
20334;SDS011;10325;51.468;5.804;2022-08-01T01:26:52;1.23;;;1.13;;
20334;SDS011;10325;51.468;5.804;2022-08-01T01:29:35;0.93;;;0.93;;
20334;SDS011;10325;51.468;5.804;2022-08-01T01:32:33;1.13;;;1.10;;
20334;SDS011;10325;51.468;5.804;2022-08-01T01:35:08;1.00;;;1.00;;
20334;SDS011;10325;51.468;5.804;2022-08-01T01:37:40;1.10;;;1.10;;
20334;SDS011;10325;51.468;5.804;2022-08-01T01:40:16;2.43;;;1.10;;
20334;SDS011;10325;51.468;5.804;2022-08-01T01:42:46;1.10;;;1.10;;
20334;SDS011;10325;51.468;5.804;2022-08-01T01:45:21;1.10;;;1.10;;
20334;SDS011;10325;51.468;5.804;2022-08-01T01:47:56;1.37;;;1.27;;
20334;SDS011;10325;51.468;5.804;2022-08-01T01:50:29;1.20;;;1.10;;
20334;SDS011;10325;51.468;5.804;2022-08-01T01:53:02;1.10;;;1.10;;
20334;SDS011;10325;51.468;5.804;2022-08-01T01:55:32;1.00;;;1.00;;
20334;SDS011;10325;51.468;5.804;2022-08-01T01:58:16;1.13;;;1.03;;
20334;SDS011;10325;51.468;5.804;2022-08-01T02:00:48;1.23;;;1.17;;
20334;SDS011;10325;51.468;5.804;2022-08-01T02:03:19;1.23;;;1.13;;
20334;SDS011;10325;51.468;5.804;2022-08-01T02:05:52;1.30;;;1.20;;
20334;SDS011;10325;51.468;5.804;2022-08-01T02:08:34;1.20;;;1.10;;
20334;SDS011;10325;51.468;5.804;2022-08-01T02:11:04;1.40;;;1.30;;
20334;SDS011;10325;51.468;5.804;2022-08-01T02:13:52;1.20;;;1.10;;
20334;SDS011;10325;51.468;5.804;2022-08-01T02:16:25;1.20;;;1.10;;
20334;SDS011;10325;51.468;5.804;2022-08-01T02:18:59;1.33;;;1.27;;
20334;SDS011;10325;51.468;5.804;2022-08-01T02:21:35;1.30;;;1.20;;
20334;SDS011;10325;51.468;5.804;2022-08-01T02:24:20;1.20;;;1.10;;
20334;SDS011;10325;51.468;5.804;2022-08-01T02:26:57;1.20;;;1.10;;
20334;SDS011;10325;51.468;5.804;2022-08-01T02:29:43;1.40;;;1.30;;
20334;SDS011;10325;51.468;5.804;2022-08-01T02:32:26;1.10;;;1.00;;
20334;SDS011;10325;51.468;5.804;2022-08-01T02:34:58;1.00;;;1.00;;
20334;SDS011;10325;51.468;5.804;2022-08-01T02:37:40;1.37;;;1.27;;
20334;SDS011;10325;51.468;5.804;2022-08-01T02:40:13;1.00;;;1.00;;
20334;SDS011;10325;51.468;5.804;2022-08-01T02:42:45;1.10;;;1.00;;
20334;SDS011;10325;51.468;5.804;2022-08-01T02:45:17;1.30;;;1.20;;
20334;SDS011;10325;51.468;5.804;2022-08-01T02:47:45;0.93;;;0.93;;
20334;SDS011;10325;51.468;5.804;2022-08-01T02:50:20;1.30;;;1.20;;
20334;SDS011;10325;51.468;5.804;2022-08-01T02:52:53;1.30;;;1.20;;
20334;SDS011;10325;51.468;5.804;2022-08-01T02:55:24;1.30;;;1.20;;
20334;SDS011;10325;51.468;5.804;2022-08-01T02:58:01;1.30;;;1.20;;
20334;SDS011;10325;51.468;5.804;2022-08-01T03:00:34;1.07;;;1.07;;
20334;SDS011;10325;51.468;5.804;2022-08-01T03:03:14;1.10;;;1.10;;
20334;SDS011;10325;51.468;5.804;2022-08-01T03:05:44;1.17;;;1.13;;
20334;SDS011;10325;51.468;5.804;2022-08-01T03:08:14;1.00;;;1.00;;
20334;SDS011;10325;51.468;5.804;2022-08-01T03:10:49;1.40;;;1.30;;
20334;SDS011;10325;51.468;5.804;2022-08-01T03:13:20;1.30;;;1.20;;
20334;SDS011;10325;51.468;5.804;2022-08-01T03:15:56;1.30;;;1.20;;
20334;SDS011;10325;51.468;5.804;2022-08-01T03:18:30;1.27;;;1.17;;
20334;SDS011;10325;51.468;5.804;2022-08-01T03:21:08;1.30;;;1.30;;
20334;SDS011;10325;51.468;5.804;2022-08-01T03:23:39;1.20;;;1.13;;
20334;SDS011;10325;51.468;5.804;2022-08-01T03:26:10;1.30;;;1.30;;
20334;SDS011;10325;51.468;5.804;2022-08-01T03:28:41;0.93;;;0.93;;
20334;SDS011;10325;51.468;5.804;2022-08-01T03:31:22;1.23;;;1.13;;
20334;SDS011;10325;51.468;5.804;2022-08-01T03:33:55;1.40;;;1.30;;
20334;SDS011;10325;51.468;5.804;2022-08-01T03:36:32;1.20;;;1.10;;
20334;SDS011;10325;51.468;5.804;2022-08-01T03:39:02;1.50;;;1.40;;
20334;SDS011;10325;51.468;5.804;2022-08-01T03:41:37;1.10;;;1.10;;
20334;SDS011;10325;51.468;5.804;2022-08-01T03:44:25;1.00;;;1.00;;
20334;SDS011;10325;51.468;5.804;2022-08-01T03:47:02;1.43;;;1.33;;
20334;SDS011;10325;51.468;5.804;2022-08-01T03:49:37;1.43;;;1.33;;
20334;SDS011;10325;51.468;5.804;2022-08-01T03:52:11;1.40;;;1.30;;
20334;SDS011;10325;51.468;5.804;2022-08-01T03:54:49;1.40;;;1.30;;
20334;SDS011;10325;51.468;5.804;2022-08-01T03:57:18;1.23;;;1.13;;
20334;SDS011;10325;51.468;5.804;2022-08-01T04:00:03;1.40;;;1.30;;
20334;SDS011;10325;51.468;5.804;2022-08-01T04:02:43;1.30;;;1.20;;
20334;SDS011;10325;51.468;5.804;2022-08-01T04:05:31;1.10;;;1.10;;
20334;SDS011;10325;51.468;5.804;2022-08-01T04:08:37;1.30;;;1.20;;
20334;SDS011;10325;51.468;5.804;2022-08-01T04:11:10;1.40;;;1.30;;
20334;SDS011;10325;51.468;5.804;2022-08-01T04:13:44;1.47;;;1.37;;
20334;SDS011;10325;51.468;5.804;2022-08-01T04:16:18;1.43;;;1.33;;
20334;SDS011;10325;51.468;5.804;2022-08-01T04:18:50;1.27;;;1.20;;
20334;SDS011;10325;51.468;5.804;2022-08-01T04:21:21;1.20;;;1.10;;
20334;SDS011;10325;51.468;5.804;2022-08-01T04:23:56;1.40;;;1.30;;
20334;SDS011;10325;51.468;5.804;2022-08-01T04:26:41;1.30;;;1.30;;
20334;SDS011;10325;51.468;5.804;2022-08-01T04:29:10;1.30;;;1.20;;
20334;SDS011;10325;51.468;5.804;2022-08-01T04:31:43;1.50;;;1.40;;
20334;SDS011;10325;51.468;5.804;2022-08-01T04:34:22;1.43;;;1.37;;
20334;SDS011;10325;51.468;5.804;2022-08-01T04:37:07;1.30;;;1.20;;
20334;SDS011;10325;51.468;5.804;2022-08-01T04:39:40;1.50;;;1.40;;
20334;SDS011;10325;51.468;5.804;2022-08-01T04:42:16;1.13;;;1.10;;
20334;SDS011;10325;51.468;5.804;2022-08-01T04:44:58;1.50;;;1.40;;
20334;SDS011;10325;51.468;5.804;2022-08-01T04:47:26;1.40;;;1.30;;
20334;SDS011;10325;51.468;5.804;2022-08-01T04:49:57;1.30;;;1.20;;
20334;SDS011;10325;51.468;5.804;2022-08-01T04:52:37;1.40;;;1.30;;
20334;SDS011;10325;51.468;5.804;2022-08-01T04:55:07;1.23;;;1.20;;
20334;SDS011;10325;51.468;5.804;2022-08-01T04:57:43;1.30;;;1.20;;
20334;SDS011;10325;51.468;5.804;2022-08-01T05:00:26;1.50;;;1.37;;
20334;SDS011;10325;51.468;5.804;2022-08-01T05:03:06;1.37;;;1.23;;
20334;SDS011;10325;51.468;5.804;2022-08-01T05:05:38;1.53;;;1.43;;
20334;SDS011;10325;51.468;5.804;2022-08-01T05:08:09;1.80;;;1.70;;
20334;SDS011;10325;51.468;5.804;2022-08-01T05:10:42;1.63;;;1.53;;
20334;SDS011;10325;51.468;5.804;2022-08-01T05:13:12;1.30;;;1.20;;
20334;SDS011;10325;51.468;5.804;2022-08-01T05:15:58;1.60;;;1.50;;
20334;SDS011;10325;51.468;5.804;2022-08-01T05:18:32;1.60;;;1.50;;
20334;SDS011;10325;51.468;5.804;2022-08-01T05:21:09;1.50;;;1.40;;
20334;SDS011;10325;51.468;5.804;2022-08-01T05:23:43;1.60;;;1.50;;
20334;SDS011;10325;51.468;5.804;2022-08-01T05:26:14;4.30;;;1.60;;
20334;SDS011;10325;51.468;5.804;2022-08-01T05:28:45;1.47;;;1.37;;
20334;SDS011;10325;51.468;5.804;2022-08-01T05:31:17;1.60;;;1.50;;
20334;SDS011;10325;51.468;5.804;2022-08-01T05:33:50;1.50;;;1.40;;
20334;SDS011;10325;51.468;5.804;2022-08-01T05:36:23;1.40;;;1.30;;
20334;SDS011;10325;51.468;5.804;2022-08-01T05:38:55;1.53;;;1.43;;
20334;SDS011;10325;51.468;5.804;2022-08-01T05:41:26;1.50;;;1.40;;
20334;SDS011;10325;51.468;5.804;2022-08-01T05:44:04;1.33;;;1.23;;
20334;SDS011;10325;51.468;5.804;2022-08-01T05:46:35;1.67;;;1.57;;
20334;SDS011;10325;51.468;5.804;2022-08-01T05:49:06;1.30;;;1.20;;
20334;SDS011;10325;51.468;5.804;2022-08-01T05:51:37;1.60;;;1.50;;
20334;SDS011;10325;51.468;5.804;2022-08-01T05:54:10;1.50;;;1.40;;
20334;SDS011;10325;51.468;5.804;2022-08-01T05:56:41;1.80;;;1.70;;
20334;SDS011;10325;51.468;5.804;2022-08-01T05:59:12;1.60;;;1.50;;
20334;SDS011;10325;51.468;5.804;2022-08-01T06:01:42;1.60;;;1.50;;
20334;SDS011;10325;51.468;5.804;2022-08-01T06:04:23;1.83;;;1.73;;
20334;SDS011;10325;51.468;5.804;2022-08-01T06:06:53;1.60;;;1.50;;
20334;SDS011;10325;51.468;5.804;2022-08-01T06:09:26;1.57;;;1.47;;
20334;SDS011;10325;51.468;5.804;2022-08-01T06:12:08;1.53;;;1.43;;
20334;SDS011;10325;51.468;5.804;2022-08-01T06:14:39;1.53;;;1.43;;
20334;SDS011;10325;51.468;5.804;2022-08-01T06:17:13;1.37;;;1.27;;
20334;SDS011;10325;51.468;5.804;2022-08-01T06:19:46;1.50;;;1.40;;
20334;SDS011;10325;51.468;5.804;2022-08-01T06:22:22;1.47;;;1.37;;
20334;SDS011;10325;51.468;5.804;2022-08-01T06:24:51;1.77;;;1.67;;
20334;SDS011;10325;51.468;5.804;2022-08-01T06:27:19;1.50;;;1.40;;
20334;SDS011;10325;51.468;5.804;2022-08-01T06:29:50;1.60;;;1.50;;
20334;SDS011;10325;51.468;5.804;2022-08-01T06:32:24;1.60;;;1.50;;
20334;SDS011;10325;51.468;5.804;2022-08-01T06:34:57;1.47;;;1.37;;
20334;SDS011;10325;51.468;5.804;2022-08-01T06:37:35;1.80;;;1.70;;
20334;SDS011;10325;51.468;5.804;2022-08-01T06:40:05;1.53;;;1.43;;
20334;SDS011;10325;51.468;5.804;2022-08-01T06:42:41;2.30;;;1.50;;
20334;SDS011;10325;51.468;5.804;2022-08-01T06:45:15;1.83;;;1.50;;
20334;SDS011;10325;51.468;5.804;2022-08-01T06:47:44;1.70;;;1.60;;
20334;SDS011;10325;51.468;5.804;2022-08-01T06:50:17;1.40;;;1.30;;
20334;SDS011;10325;51.468;5.804;2022-08-01T06:52:45;1.57;;;1.47;;
20334;SDS011;10325;51.468;5.804;2022-08-01T06:55:23;1.80;;;1.57;;
20334;SDS011;10325;51.468;5.804;2022-08-01T06:57:55;1.93;;;1.70;;
20334;SDS011;10325;51.468;5.804;2022-08-01T07:00:26;1.57;;;1.47;;
20334;SDS011;10325;51.468;5.804;2022-08-01T07:02:57;1.60;;;1.43;;
20334;SDS011;10325;51.468;5.804;2022-08-01T07:05:30;1.43;;;1.33;;
20334;SDS011;10325;51.468;5.804;2022-08-01T07:07:59;2.03;;;1.67;;
20334;SDS011;10325;51.468;5.804;2022-08-01T07:10:41;2.00;;;1.60;;
20334;SDS011;10325;51.468;5.804;2022-08-01T07:13:10;1.60;;;1.50;;
20334;SDS011;10325;51.468;5.804;2022-08-01T07:15:43;1.50;;;1.40;;
20334;SDS011;10325;51.468;5.804;2022-08-01T07:18:12;1.50;;;1.40;;
20334;SDS011;10325;51.468;5.804;2022-08-01T07:20:44;1.60;;;1.50;;
20334;SDS011;10325;51.468;5.804;2022-08-01T07:23:20;1.70;;;1.60;;
20334;SDS011;10325;51.468;5.804;2022-08-01T07:25:58;1.47;;;1.37;;
20334;SDS011;10325;51.468;5.804;2022-08-01T07:28:30;1.27;;;1.17;;
20334;SDS011;10325;51.468;5.804;2022-08-01T07:31:10;1.30;;;1.20;;
20334;SDS011;10325;51.468;5.804;2022-08-01T07:33:43;1.57;;;1.47;;
20334;SDS011;10325;51.468;5.804;2022-08-01T07:36:15;1.27;;;1.27;;
20334;SDS011;10325;51.468;5.804;2022-08-01T07:38:46;1.30;;;1.20;;
20334;SDS011;10325;51.468;5.804;2022-08-01T07:41:20;1.30;;;1.20;;
20334;SDS011;10325;51.468;5.804;2022-08-01T07:44:13;1.50;;;1.40;;
20334;SDS011;10325;51.468;5.804;2022-08-01T07:46:49;1.43;;;1.33;;
20334;SDS011;10325;51.468;5.804;2022-08-01T07:49:21;1.50;;;1.40;;
20334;SDS011;10325;51.468;5.804;2022-08-01T07:51:56;1.43;;;1.30;;
20334;SDS011;10325;51.468;5.804;2022-08-01T07:54:31;1.80;;;1.70;;
20334;SDS011;10325;51.468;5.804;2022-08-01T07:57:03;1.30;;;1.20;;
20334;SDS011;10325;51.468;5.804;2022-08-01T07:59:33;1.27;;;1.23;;
20334;SDS011;10325;51.468;5.804;2022-08-01T08:02:07;1.40;;;1.30;;
20334;SDS011;10325;51.468;5.804;2022-08-01T08:04:39;1.60;;;1.50;;
20334;SDS011;10325;51.468;5.804;2022-08-01T08:07:13;1.23;;;1.10;;
20334;SDS011;10325;51.468;5.804;2022-08-01T08:09:45;1.10;;;1.10;;
20334;SDS011;10325;51.468;5.804;2022-08-01T08:12:18;1.47;;;1.37;;
20334;SDS011;10325;51.468;5.804;2022-08-01T08:14:55;1.30;;;1.20;;
20334;SDS011;10325;51.468;5.804;2022-08-01T08:17:33;1.50;;;1.40;;
20334;SDS011;10325;51.468;5.804;2022-08-01T08:20:06;1.10;;;1.10;;
20334;SDS011;10325;51.468;5.804;2022-08-01T08:22:36;1.10;;;1.10;;
20334;SDS011;10325;51.468;5.804;2022-08-01T08:25:04;1.33;;;1.23;;
20334;SDS011;10325;51.468;5.804;2022-08-01T08:27:38;1.30;;;1.20;;
20334;SDS011;10325;51.468;5.804;2022-08-01T08:30:08;1.13;;;1.03;;
20334;SDS011;10325;51.468;5.804;2022-08-01T08:32:52;1.10;;;1.10;;
20334;SDS011;10325;51.468;5.804;2022-08-01T08:35:25;1.73;;;1.10;;
20334;SDS011;10325;51.468;5.804;2022-08-01T08:38:16;1.00;;;1.00;;
20334;SDS011;10325;51.468;5.804;2022-08-01T08:40:56;0.97;;;0.97;;
20334;SDS011;10325;51.468;5.804;2022-08-01T08:43:41;1.20;;;1.10;;
20334;SDS011;10325;51.468;5.804;2022-08-01T08:46:12;1.40;;;1.30;;
20334;SDS011;10325;51.468;5.804;2022-08-01T08:48:42;1.10;;;1.10;;
20334;SDS011;10325;51.468;5.804;2022-08-01T08:51:10;1.40;;;1.30;;
20334;SDS011;10325;51.468;5.804;2022-08-01T08:53:42;1.23;;;1.13;;
20334;SDS011;10325;51.468;5.804;2022-08-01T08:56:23;1.03;;;1.03;;
20334;SDS011;10325;51.468;5.804;2022-08-01T08:59:14;1.20;;;1.10;;
20334;SDS011;10325;51.468;5.804;2022-08-01T09:01:57;1.20;;;1.20;;
20334;SDS011;10325;51.468;5.804;2022-08-01T09:04:28;1.10;;;1.07;;
20334;SDS011;10325;51.468;5.804;2022-08-01T09:06:58;0.90;;;0.90;;
20334;SDS011;10325;51.468;5.804;2022-08-01T09:09:30;0.80;;;0.80;;
20334;SDS011;10325;51.468;5.804;2022-08-01T09:12:07;0.93;;;0.93;;
20334;SDS011;10325;51.468;5.804;2022-08-01T09:14:46;1.00;;;1.00;;
20334;SDS011;10325;51.468;5.804;2022-08-01T09:17:14;0.90;;;0.90;;
20334;SDS011;10325;51.468;5.804;2022-08-01T09:19:50;0.97;;;0.90;;
20334;SDS011;10325;51.468;5.804;2022-08-01T09:22:33;1.20;;;1.10;;
20334;SDS011;10325;51.468;5.804;2022-08-01T09:25:16;0.90;;;0.90;;
20334;SDS011;10325;51.468;5.804;2022-08-01T09:28:01;1.10;;;1.10;;
20334;SDS011;10325;51.468;5.804;2022-08-01T09:30:38;1.57;;;1.07;;
20334;SDS011;10325;51.468;5.804;2022-08-01T09:33:17;0.90;;;0.90;;
20334;SDS011;10325;51.468;5.804;2022-08-01T09:35:55;1.00;;;1.00;;
20334;SDS011;10325;51.468;5.804;2022-08-01T09:38:25;1.53;;;1.13;;
20334;SDS011;10325;51.468;5.804;2022-08-01T09:41:12;1.00;;;1.00;;
20334;SDS011;10325;51.468;5.804;2022-08-01T09:43:50;0.87;;;0.87;;
20334;SDS011;10325;51.468;5.804;2022-08-01T09:46:54;0.80;;;0.80;;
20334;SDS011;10325;51.468;5.804;2022-08-01T09:49:34;0.80;;;0.80;;
20334;SDS011;10325;51.468;5.804;2022-08-01T09:52:21;0.90;;;0.90;;
20334;SDS011;10325;51.468;5.804;2022-08-01T09:54:57;2.40;;;1.07;;
20334;SDS011;10325;51.468;5.804;2022-08-01T09:57:28;1.10;;;1.10;;
20334;SDS011;10325;51.468;5.804;2022-08-01T10:00:03;0.90;;;0.90;;
20334;SDS011;10325;51.468;5.804;2022-08-01T10:02:55;0.77;;;0.77;;
20334;SDS011;10325;51.468;5.804;2022-08-01T10:05:39;1.00;;;1.00;;
20334;SDS011;10325;51.468;5.804;2022-08-01T10:08:15;0.90;;;0.90;;
20334;SDS011;10325;51.468;5.804;2022-08-01T10:11:10;0.90;;;0.90;;
20334;SDS011;10325;51.468;5.804;2022-08-01T10:13:44;1.00;;;1.00;;
20334;SDS011;10325;51.468;5.804;2022-08-01T10:16:15;1.30;;;1.20;;
20334;SDS011;10325;51.468;5.804;2022-08-01T10:18:45;0.80;;;0.80;;
20334;SDS011;10325;51.468;5.804;2022-08-01T10:21:15;0.83;;;0.83;;
20334;SDS011;10325;51.468;5.804;2022-08-01T10:24:10;0.80;;;0.80;;
20334;SDS011;10325;51.468;5.804;2022-08-01T10:26:48;0.90;;;0.90;;
20334;SDS011;10325;51.468;5.804;2022-08-01T10:29:23;0.90;;;0.90;;
20334;SDS011;10325;51.468;5.804;2022-08-01T10:32:19;1.10;;;1.10;;
20334;SDS011;10325;51.468;5.804;2022-08-01T10:34:56;1.23;;;1.10;;
20334;SDS011;10325;51.468;5.804;2022-08-01T10:37:37;1.40;;;1.30;;
20334;SDS011;10325;51.468;5.804;2022-08-01T10:40:19;1.13;;;1.10;;
20334;SDS011;10325;51.468;5.804;2022-08-01T10:42:59;1.30;;;1.20;;
20334;SDS011;10325;51.468;5.804;2022-08-01T10:45:32;1.30;;;1.20;;
20334;SDS011;10325;51.468;5.804;2022-08-01T10:51:11;1.40;;;1.30;;
20334;SDS011;10325;51.468;5.804;2022-08-01T10:53:48;1.77;;;1.13;;
20334;SDS011;10325;51.468;5.804;2022-08-01T10:56:38;1.10;;;1.00;;
20334;SDS011;10325;51.468;5.804;2022-08-01T10:59:09;1.70;;;1.60;;
20334;SDS011;10325;51.468;5.804;2022-08-01T11:01:42;1.40;;;1.30;;
20334;SDS011;10325;51.468;5.804;2022-08-01T11:04:14;1.20;;;1.20;;
20334;SDS011;10325;51.468;5.804;2022-08-01T11:07:11;1.03;;;1.03;;
20334;SDS011;10325;51.468;5.804;2022-08-01T11:09:43;1.37;;;1.27;;
20334;SDS011;10325;51.468;5.804;2022-08-01T11:12:18;1.80;;;1.70;;
20334;SDS011;10325;51.468;5.804;2022-08-01T11:17:56;1.33;;;1.20;;
20334;SDS011;10325;51.468;5.804;2022-08-01T11:20:32;1.40;;;1.30;;
20334;SDS011;10325;51.468;5.804;2022-08-01T11:28:35;1.27;;;1.17;;
20334;SDS011;10325;51.468;5.804;2022-08-01T11:31:26;1.10;;;1.10;;
20334;SDS011;10325;51.468;5.804;2022-08-01T11:34:03;1.63;;;1.27;;
20334;SDS011;10325;51.468;5.804;2022-08-01T11:36:36;1.20;;;1.20;;
20334;SDS011;10325;51.468;5.804;2022-08-01T11:39:27;1.00;;;1.00;;
20334;SDS011;10325;51.468;5.804;2022-08-01T11:42:17;1.50;;;1.40;;
20334;SDS011;10325;51.468;5.804;2022-08-01T11:44:53;1.00;;;1.00;;
20334;SDS011;10325;51.468;5.804;2022-08-01T11:47:44;1.20;;;1.10;;
20334;SDS011;10325;51.468;5.804;2022-08-01T11:50:36;1.30;;;1.20;;
20334;SDS011;10325;51.468;5.804;2022-08-01T11:53:05;1.30;;;1.20;;
20334;SDS011;10325;51.468;5.804;2022-08-01T11:55:43;0.87;;;0.87;;
20334;SDS011;10325;51.468;5.804;2022-08-01T11:58:21;1.20;;;1.10;;
20334;SDS011;10325;51.468;5.804;2022-08-01T12:00:57;1.27;;;1.03;;
20334;SDS011;10325;51.468;5.804;2022-08-01T12:03:31;1.30;;;1.20;;
20334;SDS011;10325;51.468;5.804;2022-08-01T12:06:11;1.17;;;1.07;;
20334;SDS011;10325;51.468;5.804;2022-08-01T12:08:43;1.20;;;1.10;;
20334;SDS011;10325;51.468;5.804;2022-08-01T12:11:14;0.83;;;0.83;;
20334;SDS011;10325;51.468;5.804;2022-08-01T12:13:45;1.13;;;0.80;;
20334;SDS011;10325;51.468;5.804;2022-08-01T12:16:18;0.97;;;0.93;;
20334;SDS011;10325;51.468;5.804;2022-08-01T12:18:55;3.00;;;1.00;;
20334;SDS011;10325;51.468;5.804;2022-08-01T12:21:27;1.30;;;0.90;;
20334;SDS011;10325;51.468;5.804;2022-08-01T12:24:02;0.93;;;0.93;;
20334;SDS011;10325;51.468;5.804;2022-08-01T12:26:39;1.13;;;0.87;;
20334;SDS011;10325;51.468;5.804;2022-08-01T12:29:30;1.33;;;0.90;;
20334;SDS011;10325;51.468;5.804;2022-08-01T12:32:00;1.00;;;1.00;;
20334;SDS011;10325;51.468;5.804;2022-08-01T12:34:31;0.87;;;0.83;;
20334;SDS011;10325;51.468;5.804;2022-08-01T12:37:04;1.20;;;1.10;;
20334;SDS011;10325;51.468;5.804;2022-08-01T12:39:36;1.07;;;1.00;;
20334;SDS011;10325;51.468;5.804;2022-08-01T12:42:08;1.10;;;1.00;;
20334;SDS011;10325;51.468;5.804;2022-08-01T12:44:42;0.80;;;0.80;;
20334;SDS011;10325;51.468;5.804;2022-08-01T12:47:15;1.50;;;1.27;;
20334;SDS011;10325;51.468;5.804;2022-08-01T12:49:47;1.40;;;0.90;;
20334;SDS011;10325;51.468;5.804;2022-08-01T12:52:19;0.90;;;0.90;;
20334;SDS011;10325;51.468;5.804;2022-08-01T12:55:03;1.07;;;0.97;;
20334;SDS011;10325;51.468;5.804;2022-08-01T12:57:37;1.20;;;1.10;;
20334;SDS011;10325;51.468;5.804;2022-08-01T13:00:16;2.00;;;1.20;;
20334;SDS011;10325;51.468;5.804;2022-08-01T13:03:09;1.57;;;1.20;;
20334;SDS011;10325;51.468;5.804;2022-08-01T13:05:40;1.10;;;1.00;;
20334;SDS011;10325;51.468;5.804;2022-08-01T13:08:17;1.20;;;0.80;;
20334;SDS011;10325;51.468;5.804;2022-08-01T13:10:59;1.10;;;1.00;;
20334;SDS011;10325;51.468;5.804;2022-08-01T13:13:40;1.23;;;1.13;;
20334;SDS011;10325;51.468;5.804;2022-08-01T13:16:18;1.37;;;1.00;;
20334;SDS011;10325;51.468;5.804;2022-08-01T13:19:02;0.90;;;0.80;;
20334;SDS011;10325;51.468;5.804;2022-08-01T13:21:34;1.53;;;0.90;;
20334;SDS011;10325;51.468;5.804;2022-08-01T13:24:28;1.00;;;0.90;;
20334;SDS011;10325;51.468;5.804;2022-08-01T13:27:03;1.10;;;1.00;;
20334;SDS011;10325;51.468;5.804;2022-08-01T13:29:44;1.10;;;1.00;;
20334;SDS011;10325;51.468;5.804;2022-08-01T13:32:20;1.40;;;1.30;;
20334;SDS011;10325;51.468;5.804;2022-08-01T13:35:04;2.27;;;0.90;;
20334;SDS011;10325;51.468;5.804;2022-08-01T13:37:36;1.40;;;1.10;;
20334;SDS011;10325;51.468;5.804;2022-08-01T13:40:08;1.30;;;1.10;;
20334;SDS011;10325;51.468;5.804;2022-08-01T13:42:39;1.33;;;1.17;;
20334;SDS011;10325;51.468;5.804;2022-08-01T13:45:14;1.97;;;0.90;;
20334;SDS011;10325;51.468;5.804;2022-08-01T13:47:47;1.00;;;0.97;;
20334;SDS011;10325;51.468;5.804;2022-08-01T13:50:40;1.40;;;1.00;;
20334;SDS011;10325;51.468;5.804;2022-08-01T13:53:23;1.27;;;1.10;;
20334;SDS011;10325;51.468;5.804;2022-08-01T13:55:57;1.07;;;0.93;;
20334;SDS011;10325;51.468;5.804;2022-08-01T13:58:25;1.23;;;0.90;;
20334;SDS011;10325;51.468;5.804;2022-08-01T14:00:58;1.50;;;0.90;;
20334;SDS011;10325;51.468;5.804;2022-08-01T14:03:32;1.07;;;1.00;;
20334;SDS011;10325;51.468;5.804;2022-08-01T14:06:03;0.90;;;0.90;;
20334;SDS011;10325;51.468;5.804;2022-08-01T14:08:36;1.17;;;1.10;;
20334;SDS011;10325;51.468;5.804;2022-08-01T14:11:14;1.77;;;1.00;;
20334;SDS011;10325;51.468;5.804;2022-08-01T14:13:47;1.47;;;1.23;;
20334;SDS011;10325;51.468;5.804;2022-08-01T14:16:19;1.20;;;0.93;;
20334;SDS011;10325;51.468;5.804;2022-08-01T14:18:50;1.77;;;1.20;;
20334;SDS011;10325;51.468;5.804;2022-08-01T14:21:19;1.20;;;1.03;;
20334;SDS011;10325;51.468;5.804;2022-08-01T14:23:52;1.47;;;1.03;;
20334;SDS011;10325;51.468;5.804;2022-08-01T14:26:28;0.87;;;0.87;;
20334;SDS011;10325;51.468;5.804;2022-08-01T14:29:02;1.40;;;1.07;;
20334;SDS011;10325;51.468;5.804;2022-08-01T14:31:34;1.10;;;1.00;;
20334;SDS011;10325;51.468;5.804;2022-08-01T14:34:03;1.50;;;1.20;;
20334;SDS011;10325;51.468;5.804;2022-08-01T14:36:33;1.70;;;1.30;;
20334;SDS011;10325;51.468;5.804;2022-08-01T14:39:05;1.43;;;1.00;;
20334;SDS011;10325;51.468;5.804;2022-08-01T14:41:41;1.20;;;1.10;;
20334;SDS011;10325;51.468;5.804;2022-08-01T14:44:13;1.00;;;1.00;;
20334;SDS011;10325;51.468;5.804;2022-08-01T14:46:47;1.30;;;1.20;;
20334;SDS011;10325;51.468;5.804;2022-08-01T14:49:25;1.53;;;1.20;;
20334;SDS011;10325;51.468;5.804;2022-08-01T14:51:58;1.67;;;1.33;;
20334;SDS011;10325;51.468;5.804;2022-08-01T14:54:31;1.83;;;1.27;;
20334;SDS011;10325;51.468;5.804;2022-08-01T14:57:01;1.57;;;1.10;;
20334;SDS011;10325;51.468;5.804;2022-08-01T14:59:31;1.37;;;1.20;;
20334;SDS011;10325;51.468;5.804;2022-08-01T15:02:04;1.40;;;1.30;;
20334;SDS011;10325;51.468;5.804;2022-08-01T15:04:39;1.17;;;1.07;;
20334;SDS011;10325;51.468;5.804;2022-08-01T15:07:10;1.30;;;1.17;;
20334;SDS011;10325;51.468;5.804;2022-08-01T15:09:39;1.43;;;1.33;;
20334;SDS011;10325;51.468;5.804;2022-08-01T15:12:12;1.87;;;1.20;;
20334;SDS011;10325;51.468;5.804;2022-08-01T15:14:47;1.47;;;1.00;;
20334;SDS011;10325;51.468;5.804;2022-08-01T15:17:15;1.37;;;1.27;;
20334;SDS011;10325;51.468;5.804;2022-08-01T15:19:50;1.23;;;1.10;;
20334;SDS011;10325;51.468;5.804;2022-08-01T15:22:23;1.20;;;1.10;;
20334;SDS011;10325;51.468;5.804;2022-08-01T15:24:54;1.33;;;1.07;;
20334;SDS011;10325;51.468;5.804;2022-08-01T15:27:26;1.70;;;1.30;;
20334;SDS011;10325;51.468;5.804;2022-08-01T15:29:58;1.10;;;1.00;;
20334;SDS011;10325;51.468;5.804;2022-08-01T15:32:30;1.23;;;1.13;;
20334;SDS011;10325;51.468;5.804;2022-08-01T15:35:01;1.60;;;1.37;;
20334;SDS011;10325;51.468;5.804;2022-08-01T15:37:34;2.03;;;1.20;;
20334;SDS011;10325;51.468;5.804;2022-08-01T15:40:11;1.20;;;1.10;;
20334;SDS011;10325;51.468;5.804;2022-08-01T15:42:44;1.87;;;1.20;;
20334;SDS011;10325;51.468;5.804;2022-08-01T15:45:16;2.73;;;1.40;;
20334;SDS011;10325;51.468;5.804;2022-08-01T15:48:10;1.50;;;1.30;;
20334;SDS011;10325;51.468;5.804;2022-08-01T15:50:40;1.20;;;1.10;;
20334;SDS011;10325;51.468;5.804;2022-08-01T15:53:10;1.37;;;1.10;;
20334;SDS011;10325;51.468;5.804;2022-08-01T15:55:46;1.23;;;1.13;;
20334;SDS011;10325;51.468;5.804;2022-08-01T15:58:18;1.53;;;1.20;;
20334;SDS011;10325;51.468;5.804;2022-08-01T16:00:50;1.93;;;1.40;;